Blairs Mill, Kentucky
Current Conditions -  °F | °C
As of 2:53 AM on Friday 19 Dec 2014 (Local Time) from KJKL Reporting Station
Overcast Overcast  
Wind Chill: 30°   Ceiling: 1600
Heat Index: 30°   Visibility: 10mi
Dew Point: 24°   Wind: 0mph
Humidity: 79%   Direction: NA
Pressure: 30.2"   Gusts: NA
Location:  37.937°N, 83.2694°W
Report Text: KJKL 190753Z AUTO 00000KT 10SM BKN016 OVC060 M01/M04 A3020 RMK AO2 SLP235 T10111044
Loading
Personal Weather Stations






























Interactive Weather Map New forecast layout! Learn more

10-Day Weather Forecast

Advertisements
Track Severe Weather on mobile